Time;durP1;ratioP1;P1;durP2;ratioP2;P2;SDS_P1;SDS_P2;PMS_P1;PMS_P2;Temp;Humidity;BMP_temperature;BMP_pressure;BME280_temperature;BME280_humidity;BME280_pressure;Samples;Min_cycle;Max_cycle;Signal;HPM_P1;HPM_P2
2021/04/03 00:00:18;;;;;;;13.45;5.88;;;;;;;6.90;66.11;100135.16;5019441;27;96829;-73
2021/04/03 00:02:44;;;;;;;11.13;6.22;;;;;;;6.83;66.45;100128.34;5020060;27;101200;-73
2021/04/03 00:05:11;;;;;;;10.80;5.87;;;;;;;6.78;66.21;100124.09;5036343;27;100756;-73
2021/04/03 00:07:37;;;;;;;12.77;6.00;;;;;;;6.77;66.29;100118.91;5037192;27;96596;-73
2021/04/03 00:10:13;;;;;;;12.73;6.00;;;;;;;6.77;66.61;100117.13;5036945;27;97030;-75
2021/04/03 00:12:39;;;;;;;11.15;5.90;;;;;;;6.83;66.16;100110.09;5053008;27;98388;-73
2021/04/03 00:15:06;;;;;;;12.67;6.27;;;;;;;6.75;66.19;100112.88;5018936;27;101239;-74
2021/04/03 00:17:31;;;;;;;12.47;6.00;;;;;;;6.82;66.23;100110.97;5036442;27;96650;-73
2021/04/03 00:19:57;;;;;;;13.90;6.57;;;;;;;6.80;66.26;100109.25;5036778;27;97054;-72
2021/04/03 00:22:23;;;;;;;10.80;6.20;;;;;;;6.85;66.54;100106.56;5035579;27;100897;-73
2021/04/03 00:24:48;;;;;;;14.07;6.23;;;;;;;6.90;66.86;100107.31;5036727;27;98086;-73
2021/04/03 00:27:14;;;;;;;10.73;5.63;;;;;;;6.92;67.26;100115.97;5035853;27;96691;-73
2021/04/03 00:29:40;;;;;;;14.73;6.93;;;;;;;6.83;67.85;100110.09;5036503;27;96933;-72
2021/04/03 00:32:06;;;;;;;9.03;5.80;;;;;;;6.88;67.92;100108.22;5019095;27;101087;-74
2021/04/03 00:34:31;;;;;;;16.43;6.60;;;;;;;6.93;67.70;100109.00;5018830;27;101031;-73
2021/04/03 00:36:57;;;;;;;12.50;6.37;;;;;;;6.91;67.51;100111.63;5052972;27;97236;-73
2021/04/03 00:39:22;;;;;;;12.43;6.60;;;;;;;6.98;66.93;100102.78;5019267;27;97103;-73
2021/04/03 00:41:49;;;;;;;14.53;6.93;;;;;;;6.85;67.55;100103.94;5040010;27;97990;-73
2021/04/03 00:44:14;;;;;;;15.77;8.10;;;;;;;6.84;68.28;100104.00;5038282;27;101401;-73
2021/04/03 00:46:40;;;;;;;15.93;7.80;;;;;;;6.81;68.00;100104.91;5039414;27;97380;-73
2021/04/03 00:49:06;;;;;;;17.47;7.50;;;;;;;6.86;68.54;100099.56;5022674;27;97222;-75
2021/04/03 00:51:33;;;;;;;14.80;7.73;;;;;;;6.77;68.71;100098.88;5038912;27;101972;-73
2021/04/03 00:53:59;;;;;;;16.77;7.60;;;;;;;6.74;68.73;100100.69;5039315;27;100973;-73
2021/04/03 00:56:26;;;;;;;13.33;7.50;;;;;;;6.88;68.33;100093.44;5021988;27;96656;-73
2021/04/03 00:58:53;;;;;;;12.17;6.80;;;;;;;6.96;67.80;100090.66;5022622;27;96897;-73
2021/04/03 01:01:19;;;;;;;15.17;7.30;;;;;;;6.90;68.32;100091.66;5037740;27;101184;-73
2021/04/03 01:03:48;;;;;;;11.87;6.30;;;;;;;6.83;68.56;100097.88;5023273;27;101452;-73
2021/04/03 01:06:15;;;;;;;15.90;6.87;;;;;;;6.92;68.40;100096.81;5021869;27;96727;-75
2021/04/03 01:08:41;;;;;;;14.33;7.27;;;;;;;6.90;69.06;100096.88;5039403;27;96761;-74
2021/04/03 01:11:06;;;;;;;17.60;7.85;;;;;;;6.99;68.61;100091.44;5038827;27;101114;-74
2021/04/03 01:13:57;;;;;;;15.63;6.97;;;;;;;6.93;68.54;100094.19;5022413;27;101795;-75
2021/04/03 01:16:40;;;;;;;15.73;6.72;;;;;;;6.95;68.52;100087.19;5038993;27;96698;-75
2021/04/03 01:19:33;;;;;;;15.00;7.63;;;;;;;6.89;68.81;100081.25;5039223;27;97036;-77
2021/04/03 01:22:34;;;;;;;14.50;8.05;;;;;;;6.83;68.58;100079.63;5039114;27;101307;-74
2021/04/03 01:25:32;;;;;;;15.37;7.77;;;;;;;6.85;68.70;100082.22;5022238;27;101509;-74
2021/04/03 01:28:15;;;;;;;15.07;8.10;;;;;;;6.85;68.51;100077.84;5038587;27;96799;-75
2021/04/03 01:30:45;;;;;;;15.07;8.60;;;;;;;6.83;68.62;100069.19;5039037;27;96883;-75
2021/04/03 01:33:13;;;;;;;15.33;8.30;;;;;;;6.70;68.93;100076.44;5037841;27;101669;-77
2021/04/03 01:35:47;;;;;;;16.13;8.10;;;;;;;6.74;68.16;100070.25;5023209;27;100883;-74
2021/04/03 01:38:35;;;;;;;16.57;8.47;;;;;;;6.69;68.83;100060.81;5038237;27;97097;-75
2021/04/03 01:41:01;;;;;;;16.73;8.50;;;;;;;6.68;68.97;100057.34;5034799;27;96925;-74
2021/04/03 01:43:34;;;;;;;18.23;8.93;;;;;;;6.71;69.07;100056.44;5017879;27;101619;-75
2021/04/03 01:46:00;;;;;;;14.32;8.68;;;;;;;6.74;69.00;100053.75;5035406;27;101091;-74
2021/04/03 01:48:28;;;;;;;13.37;8.37;;;;;;;6.71;68.80;100053.81;5017718;27;96952;-75
2021/04/03 01:50:54;;;;;;;17.53;9.00;;;;;;;6.73;69.02;100063.31;5035071;27;97185;-74
2021/04/03 01:53:21;;;;;;;17.43;8.47;;;;;;;6.77;68.27;100064.09;5033742;27;101046;-75
2021/04/03 01:55:51;;;;;;;16.47;8.80;;;;;;;6.84;67.77;100070.06;5018958;27;100817;-74
2021/04/03 01:58:18;;;;;;;19.20;9.00;;;;;;;6.89;67.75;100062.97;5034423;27;96667;-75
2021/04/03 02:00:45;;;;;;;16.70;9.13;;;;;;;6.91;67.76;100061.19;5035297;27;96901;-74
2021/04/03 02:03:11;;;;;;;16.77;8.03;;;;;;;6.96;67.83;100054.13;5034584;27;101274;-74
2021/04/03 02:05:37;;;;;;;13.70;8.10;;;;;;;6.94;67.51;100048.06;5017624;27;102440;-72
2021/04/03 02:08:29;;;;;;;17.70;8.52;;;;;;;6.85;67.77;100054.38;5019013;27;97303;-73
2021/04/03 02:11:21;;;;;;;15.60;8.50;;;;;;;6.87;67.69;100049.13;5038307;27;96715;-73
2021/04/03 02:13:50;;;;;;;15.47;7.90;;;;;;;6.86;67.71;100043.03;5018571;27;100943;-72
2021/04/03 02:16:17;;;;;;;14.97;7.97;;;;;;;6.71;67.97;100048.59;5033803;27;101128;-74
2021/04/03 02:18:43;;;;;;;16.73;8.23;;;;;;;6.73;68.29;100042.47;5017734;27;97256;-73
2021/04/03 02:21:10;;;;;;;13.87;7.93;;;;;;;6.66;69.34;100043.50;5034876;27;97147;-72
2021/04/03 02:23:39;;;;;;;21.67;8.03;;;;;;;6.60;69.06;100042.75;5018334;27;101984;-72
2021/04/03 02:26:07;;;;;;;13.60;7.67;;;;;;;6.53;68.97;100036.84;5018380;27;101463;-72
2021/04/03 02:28:34;;;;;;;13.10;8.17;;;;;;;6.42;69.58;100041.41;5034150;27;96673;-72
2021/04/03 02:30:59;;;;;;;17.43;8.23;;;;;;;6.42;69.28;100041.41;5051961;27;96749;-72
2021/04/03 02:33:25;;;;;;;15.97;7.90;;;;;;;6.39;69.51;100050.16;5033660;27;101100;-75
2021/04/03 02:35:52;;;;;;;15.67;7.63;;;;;;;6.38;69.38;100045.00;5018073;27;101030;-74
2021/04/03 02:38:18;;;;;;;20.13;9.60;;;;;;;6.38;69.44;100040.63;5017371;27;96551;-74
2021/04/03 02:41:05;;;;;;;14.33;8.40;;;;;;;6.30;69.33;100042.53;5022312;27;96885;-72
2021/04/03 02:43:52;;;;;;;14.93;8.70;;;;;;;6.25;69.57;100037.41;5032981;27;101330;-72
2021/04/03 02:46:27;;;;;;;16.80;8.27;;;;;;;6.22;69.91;100042.69;5033683;27;101400;-73
2021/04/03 02:48:56;;;;;;;13.60;7.77;;;;;;;6.16;70.25;100040.22;5018090;27;97191;-73
2021/04/03 02:51:30;;;;;;;16.10;8.83;;;;;;;6.22;70.40;100037.47;5036867;27;96959;-72
2021/04/03 02:53:56;;;;;;;17.27;8.10;;;;;;;6.19;70.42;100036.69;5037559;27;100667;-74
2021/04/03 02:56:24;;;;;;;17.33;8.70;;;;;;;6.19;70.67;100039.28;5020318;27;101270;-73
2021/04/03 02:58:52;;;;;;;15.03;8.10;;;;;;;6.29;70.46;100040.84;5037568;27;98473;-73
2021/04/03 03:01:18;;;;;;;16.30;8.43;;;;;;;6.32;70.43;100043.38;5037661;27;97039;-75
2021/04/03 03:03:54;;;;;;;15.00;8.43;;;;;;;6.23;70.38;100040.97;5038995;27;101133;-73
2021/04/03 03:06:22;;;;;;;16.67;8.70;;;;;;;6.24;70.17;100043.53;5036999;27;101419;-73
2021/04/03 03:08:48;;;;;;;17.07;7.93;;;;;;;6.30;70.47;100040.78;5020768;27;97157;-73
2021/04/03 03:11:17;;;;;;;17.03;8.03;;;;;;;6.21;70.37;100040.97;5020813;27;96932;-73
2021/04/03 03:13:43;;;;;;;17.90;8.43;;;;;;;6.24;70.42;100040.06;5020540;27;101019;-73
2021/04/03 03:16:10;;;;;;;15.87;7.63;;;;;;;6.23;70.18;100040.97;5020650;27;101435;-73
2021/04/03 03:18:39;;;;;;;19.77;8.27;;;;;;;6.18;70.52;100046.25;5037198;27;96568;-73
2021/04/03 03:21:06;;;;;;;15.87;7.33;;;;;;;6.23;70.63;100046.16;5054568;27;96803;-73
2021/04/03 03:23:31;;;;;;;16.63;7.10;;;;;;;6.24;70.21;100047.88;5036503;27;101403;-73
2021/04/03 03:25:57;;;;;;;15.33;8.03;;;;;;;6.18;70.40;100048.88;5037956;27;97954;-73
2021/04/03 03:28:28;;;;;;;11.40;6.63;;;;;;;6.17;70.45;100049.75;5037956;27;97322;-73
2021/04/03 03:30:54;;;;;;;13.60;6.63;;;;;;;6.20;70.45;100051.44;5020854;27;97025;-73
2021/04/03 03:33:23;;;;;;;12.50;6.07;;;;;;;6.22;69.93;100053.09;5036416;27;101499;-74
2021/04/03 03:35:49;;;;;;;14.20;7.37;;;;;;;6.25;70.21;100057.41;5037347;27;98076;-73
2021/04/03 03:38:16;;;;;;;15.93;7.00;;;;;;;6.19;70.30;100049.72;5054393;27;96920;-73
2021/04/03 03:40:44;;;;;;;13.47;5.80;;;;;;;6.21;69.99;100053.16;5036426;27;97379;-73
2021/04/03 03:43:16;;;;;;;11.53;6.40;;;;;;;6.23;69.82;100056.59;5037283;27;99881;-73
2021/04/03 03:45:47;;;;;;;12.83;5.60;;;;;;;6.21;70.22;100060.97;5037794;27;101636;-73
2021/04/03 03:48:13;;;;;;;15.33;5.67;;;;;;;6.18;70.38;100063.66;5036920;27;96825;-73
2021/04/03 03:50:39;;;;;;;15.30;6.27;;;;;;;6.18;70.29;100063.66;5053613;27;97605;-73
2021/04/03 03:53:07;;;;;;;13.47;5.87;;;;;;;6.20;70.21;100073.16;5020602;27;101740;-73
2021/04/03 03:55:33;;;;;;;12.50;6.03;;;;;;;6.22;70.19;100068.75;5019112;27;101466;-73
2021/04/03 03:58:02;;;;;;;10.87;6.17;;;;;;;6.32;69.87;100075.50;5036882;27;96618;-75
2021/04/03 04:00:29;;;;;;;12.77;5.97;;;;;;;6.25;70.03;100070.44;5019179;27;96911;-73
2021/04/03 04:03:05;;;;;;;11.10;5.87;;;;;;;6.29;70.39;100077.31;5038481;27;98095;-73
2021/04/03 04:05:34;;;;;;;13.57;6.37;;;;;;;6.29;70.22;100075.56;5036271;27;102119;-73
2021/04/03 04:08:03;;;;;;;14.43;6.47;;;;;;;6.27;70.05;100069.53;5037360;27;96729;-73
2021/04/03 04:10:31;;;;;;;11.33;7.17;;;;;;;6.19;70.07;100075.78;5019679;27;96917;-73
2021/04/03 04:12:57;;;;;;;13.93;7.03;;;;;;;6.26;69.97;100077.38;5019869;27;101495;-73
2021/04/03 04:15:23;;;;;;;13.23;6.47;;;;;;;6.26;70.53;100069.56;5019486;27;101670;-75
2021/04/03 04:17:51;;;;;;;9.83;6.00;;;;;;;6.31;70.49;100081.63;5037180;27;96946;-73
2021/04/03 04:20:18;;;;;;;13.33;7.27;;;;;;;6.32;70.22;100072.91;5020077;27;96996;-73
2021/04/03 04:22:49;;;;;;;12.70;5.97;;;;;;;6.36;70.13;100086.72;5036999;27;98493;-73
2021/04/03 04:25:17;;;;;;;12.90;6.23;;;;;;;6.40;70.02;100082.28;5036471;27;102032;-73
2021/04/03 04:27:44;;;;;;;12.43;6.63;;;;;;;6.39;70.23;100084.06;5019537;27;96683;-73
2021/04/03 04:30:12;;;;;;;15.47;6.43;;;;;;;6.27;70.58;100090.38;5019987;27;96903;-73
2021/04/03 04:32:46;;;;;;;17.17;7.07;;;;;;;6.29;70.62;100093.81;5036416;27;101258;-73
2021/04/03 04:35:16;;;;;;;18.43;6.97;;;;;;;6.36;70.27;100094.53;5020328;27;100971;-73
2021/04/03 04:37:46;;;;;;;14.33;7.13;;;;;;;6.40;69.94;100100.56;5019769;27;97117;-73
2021/04/03 04:40:14;;;;;;;13.50;7.17;;;;;;;6.38;70.52;100099.75;5036496;27;96875;-73
2021/04/03 04:42:41;;;;;;;13.67;6.87;;;;;;;6.36;69.91;100099.75;5035640;27;101512;-73
2021/04/03 04:45:11;;;;;;;13.63;7.10;;;;;;;6.34;69.91;100099.81;5053224;27;97962;-73
2021/04/03 04:47:37;;;;;;;19.53;7.47;;;;;;;6.37;69.97;100105.81;5017462;27;97202;-73
2021/04/03 04:50:05;;;;;;;11.37;6.53;;;;;;;6.49;69.65;100103.00;5036377;27;96951;-73
2021/04/03 04:52:31;;;;;;;15.30;7.37;;;;;;;6.37;70.12;100109.31;5035233;27;100032;-73
2021/04/03 04:54:57;;;;;;;14.90;6.67;;;;;;;6.33;69.80;100102.44;5035714;27;100938;-73
2021/04/03 04:57:23;;;;;;;14.83;6.43;;;;;;;6.33;69.82;100107.66;5036503;27;97366;-73
2021/04/03 04:59:57;;;;;;;12.50;6.50;;;;;;;6.26;70.30;100106.91;5037255;27;96983;-73
2021/04/03 05:02:29;;;;;;;13.37;6.93;;;;;;;6.35;69.72;100118.91;5019905;27;101125;-73
2021/04/03 05:04:55;;;;;;;12.27;6.33;;;;;;;6.29;70.00;100116.44;5035885;27;98087;-73
2021/04/03 05:07:20;;;;;;;12.97;6.87;;;;;;;6.37;69.60;100122.34;5035846;27;97092;-73
2021/04/03 05:09:46;;;;;;;12.23;6.33;;;;;;;6.27;69.51;100119.06;5018355;27;97347;-73
2021/04/03 05:12:11;;;;;;;14.20;6.70;;;;;;;6.28;69.74;100126.00;5033963;27;101436;-73
2021/04/03 05:14:37;;;;;;;19.17;6.70;;;;;;;6.40;69.59;100134.44;5034313;27;101331;-73
2021/04/03 05:17:03;;;;;;;11.77;6.70;;;;;;;6.34;69.03;100131.09;5052929;27;96972;-73
2021/04/03 05:19:29;;;;;;;13.80;6.33;;;;;;;6.33;69.65;100126.75;5018374;27;96956;-74
2021/04/03 05:21:54;;;;;;;13.37;6.43;;;;;;;6.37;69.29;100124.97;5035510;27;98942;-73
2021/04/03 05:24:20;;;;;;;15.77;6.50;;;;;;;6.37;69.02;100140.59;5018301;27;101344;-73
2021/04/03 05:26:45;;;;;;;11.90;6.50;;;;;;;6.39;69.12;100132.75;5034810;27;96958;-73
2021/04/03 05:29:11;;;;;;;15.77;6.80;;;;;;;6.44;68.63;100136.97;5035507;27;96825;-73
2021/04/03 05:31:37;;;;;;;16.50;6.80;;;;;;;6.43;68.46;100137.00;5017689;27;101249;-73
2021/04/03 05:34:02;;;;;;;17.80;7.20;;;;;;;6.49;68.45;100137.75;5035146;27;101425;-73
2021/04/03 05:36:28;;;;;;;16.60;6.40;;;;;;;6.60;68.11;100147.09;5034717;27;96498;-75
2021/04/03 05:38:53;;;;;;;12.63;6.30;;;;;;;6.59;67.90;100143.63;5018108;27;96843;-73
2021/04/03 05:41:19;;;;;;;13.33;5.93;;;;;;;6.70;67.77;100149.47;5028098;28;100451;-73
2021/04/03 05:43:46;;;;;;;11.93;6.00;;;;;;;6.82;67.31;100152.72;4997474;28;101236;-73
2021/04/03 05:46:12;;;;;;;12.50;6.23;;;;;;;6.86;66.57;100151.75;4998693;28;96572;-73
2021/04/03 05:48:38;;;;;;;12.13;5.70;;;;;;;6.96;65.38;100159.38;5014347;28;96836;-73
2021/04/03 05:51:04;;;;;;;14.33;6.50;;;;;;;7.14;65.13;100158.09;4998205;28;100873;-73
2021/04/03 05:53:29;;;;;;;15.73;6.13;;;;;;;7.41;63.35;100156.59;5014807;28;101319;-76
2021/04/03 05:55:56;;;;;;;15.93;6.35;;;;;;;7.66;62.17;100164.72;5014544;28;96693;-73
2021/04/03 05:58:22;;;;;;;13.70;6.17;;;;;;;8.07;61.22;100165.41;4998265;28;96877;-73
2021/04/03 06:00:50;;;;;;;14.97;6.37;;;;;;;8.41;60.50;100163.66;5013379;28;101542;-73
2021/04/03 06:03:16;;;;;;;13.07;6.07;;;;;;;9.81;57.52;100162.94;4998012;28;101022;-73
2021/04/03 06:05:43;;;;;;;12.68;5.88;;;;;;;10.24;55.78;100153.56;4997178;28;96944;-72
2021/04/03 06:08:08;;;;;;;14.05;5.40;;;;;;;10.40;54.13;100158.25;5014909;28;97297;-72
2021/04/03 06:10:34;;;;;;;10.40;5.68;;;;;;;9.80;55.81;100159.41;4997065;28;101239;-75
2021/04/03 06:13:00;;;;;;;11.95;5.45;;;;;;;10.07;54.71;100160.28;5014383;28;101330;-75
2021/04/03 06:15:28;;;;;;;13.80;5.50;;;;;;;9.58;54.74;100166.28;5014722;28;97017;-75
2021/04/03 06:17:55;;;;;;;13.57;6.35;;;;;;;10.12;54.53;100170.59;5032255;28;97448;-75
2021/04/03 06:20:33;;;;;;;10.00;5.00;;;;;;;10.54;52.32;100172.66;5014436;28;101295;-75
2021/04/03 06:22:58;;;;;;;13.07;5.85;;;;;;;10.00;53.44;100165.78;4997525;28;101165;-75
2021/04/03 06:25:24;;;;;;;15.75;5.55;;;;;;;10.31;52.67;100174.31;5017433;28;96586;-75
2021/04/03 06:28:07;;;;;;;14.77;5.90;;;;;;;10.07;52.87;100173.38;5017628;28;97280;-74
2021/04/03 06:30:37;;;;;;;10.05;5.10;;;;;;;12.46;48.62;100168.47;5017448;28;101702;-76
2021/04/03 06:33:12;;;;;;;11.10;5.35;;;;;;;14.72;43.41;100179.50;5018027;28;97446;-72
2021/04/03 06:35:38;;;;;;;11.13;4.82;;;;;;;16.62;39.94;100171.25;5033921;28;96534;-73
2021/04/03 06:38:22;;;;;;;10.55;4.97;;;;;;;18.42;36.70;100168.44;5035421;28;96858;-73
2021/04/03 06:40:49;;;;;;;13.05;5.25;;;;;;;19.72;34.79;100168.06;5029253;27;97993;-73
2021/04/03 06:43:16;;;;;;;9.70;4.00;;;;;;;20.33;33.31;100168.75;5038107;27;101365;-73
2021/04/03 06:45:44;;;;;;;11.57;4.40;;;;;;;21.08;32.52;100178.03;5037769;27;96730;-73
2021/04/03 06:48:11;;;;;;;10.68;4.18;;;;;;;22.40;31.21;100181.38;5021513;27;97006;-73
2021/04/03 06:50:45;;;;;;;9.98;4.40;;;;;;;19.96;32.71;100192.03;5019756;27;101508;-75
2021/04/03 06:53:14;;;;;;;7.57;4.53;;;;;;;15.67;39.35;100202.47;5037521;27;101119;-73
2021/04/03 06:55:41;;;;;;;11.23;4.32;;;;;;;14.01;42.20;100208.66;5037341;27;96709;-73
2021/04/03 06:58:08;;;;;;;12.43;5.70;;;;;;;13.26;43.86;100213.13;5021290;27;96846;-73
2021/04/03 07:00:34;;;;;;;11.55;4.80;;;;;;;13.77;43.98;100223.91;5037691;27;98119;-74
2021/04/03 07:03:00;;;;;;;12.35;4.78;;;;;;;14.09;42.37;100224.97;5020305;27;101594;-73
2021/04/03 07:05:31;;;;;;;8.93;4.50;;;;;;;14.38;42.34;100225.28;5054622;27;96836;-73
2021/04/03 07:07:58;;;;;;;10.77;5.03;;;;;;;14.06;42.68;100230.41;5020130;27;97450;-73
2021/04/03 07:10:24;;;;;;;11.75;4.97;;;;;;;12.28;45.41;100228.03;5037331;27;100974;-73
2021/04/03 07:12:51;;;;;;;8.80;4.53;;;;;;;12.46;45.74;100234.28;5053579;27;98434;-72
2021/04/03 07:15:16;;;;;;;9.73;4.50;;;;;;;17.29;37.74;100229.03;5053844;27;96636;-73
2021/04/03 07:17:43;;;;;;;13.63;4.68;;;;;;;19.29;34.55;100237.75;5036473;27;96883;-73
2021/04/03 07:20:14;;;;;;;12.45;5.40;;;;;;;20.32;32.60;100223.03;5020356;27;101248;-73
2021/04/03 07:22:43;;;;;;;9.25;5.13;;;;;;;21.35;31.31;100236.34;5019653;27;101627;-75
2021/04/03 07:25:10;;;;;;;9.90;5.05;;;;;;;22.12;30.20;100231.78;5037646;27;96855;-73
2021/04/03 07:27:45;;;;;;;11.38;5.55;;;;;;;23.09;29.12;100226.22;5037645;27;97326;-74
2021/04/03 07:30:11;;;;;;;11.23;5.47;;;;;;;23.34;29.04;100234.78;5037111;27;101764;-73
2021/04/03 07:32:42;;;;;;;13.68;5.38;;;;;;;19.93;32.76;100248.22;5037308;27;97991;-76
2021/04/03 07:35:23;;;;;;;12.85;5.55;;;;;;;17.38;37.03;100252.31;5036429;27;97165;-73
2021/04/03 07:37:50;;;;;;;10.70;4.80;;;;;;;15.43;39.74;100273.50;5037245;27;96696;-73
2021/04/03 07:40:37;;;;;;;11.63;4.90;;;;;;;14.29;41.30;100274.13;5035748;27;97899;-73
2021/04/03 07:43:05;;;;;;;10.93;4.68;;;;;;;13.61;42.31;100276.53;5037181;27;97919;-73
2021/04/03 07:45:43;;;;;;;11.85;4.88;;;;;;;13.78;41.71;100286.28;5037087;27;96891;-73
2021/04/03 07:48:14;;;;;;;12.65;4.85;;;;;;;13.58;42.51;100297.78;5037302;27;96801;-72
2021/04/03 07:50:39;;;;;;;13.75;5.00;;;;;;;15.31;39.91;100288.25;5019851;27;100891;-74
2021/04/03 07:53:05;;;;;;;10.15;4.00;;;;;;;18.16;36.04;100294.22;5036370;27;101635;-73
2021/04/03 07:55:36;;;;;;;11.25;4.55;;;;;;;17.56;36.15;100295.41;5020141;27;96968;-73
2021/04/03 07:58:23;;;;;;;11.80;4.78;;;;;;;16.00;38.42;100305.63;5036089;27;97381;-73
2021/04/03 08:00:49;;;;;;;15.27;4.72;;;;;;;14.91;39.50;100309.72;5035691;27;101726;-73
2021/04/03 08:03:25;;;;;;;13.10;4.63;;;;;;;16.68;37.30;100299.91;5019796;27;101285;-73
2021/04/03 08:05:58;;;;;;;11.27;5.25;;;;;;;18.76;34.39;100307.91;5035493;27;97055;-73
2021/04/03 08:08:26;;;;;;;9.07;4.93;;;;;;;20.30;32.11;100311.13;5054296;27;96672;-73
2021/04/03 08:11:04;;;;;;;14.80;4.60;;;;;;;16.31;36.51;100325.88;5052697;27;98062;-73
2021/04/03 08:13:31;;;;;;;13.00;5.43;;;;;;;15.39;38.79;100323.06;5036819;27;97940;-73
2021/04/03 08:15:57;;;;;;;13.25;4.60;;;;;;;14.70;40.45;100330.16;5035866;27;97179;-73
2021/04/03 08:18:23;;;;;;;13.13;4.50;;;;;;;14.14;41.51;100327.69;5019756;27;96971;-73
2021/04/03 08:20:52;;;;;;;17.95;4.90;;;;;;;13.68;41.98;100333.38;5052609;27;98045;-73
2021/04/03 08:23:32;;;;;;;17.25;5.68;;;;;;;18.05;35.64;100326.78;5053513;27;97925;-73
2021/04/03 08:25:58;;;;;;;10.50;4.35;;;;;;;20.47;31.37;100325.81;5019040;27;96837;-73
2021/04/03 08:28:24;;;;;;;18.52;6.03;;;;;;;20.87;31.36;100328.16;5036504;27;97406;-73
2021/04/03 08:30:49;;;;;;;8.38;4.18;;;;;;;21.72;30.51;100321.56;5035170;27;97406;-73
2021/04/03 08:33:17;;;;;;;11.02;5.03;;;;;;;20.24;32.00;100329.34;5019286;27;101679;-73
2021/04/03 08:35:46;;;;;;;15.82;5.05;;;;;;;20.25;31.69;100334.59;5036159;27;96768;-76
2021/04/03 08:38:14;;;;;;;8.63;4.00;;;;;;;21.89;29.63;100334.41;5019412;27;97025;-73
2021/04/03 08:40:41;;;;;;;10.82;5.30;;;;;;;23.52;27.96;100332.25;5018621;27;101533;-73
2021/04/03 08:43:07;;;;;;;13.50;4.10;;;;;;;22.29;29.52;100332.00;5037915;27;100987;-73
2021/04/03 08:45:38;;;;;;;13.10;4.03;;;;;;;22.78;28.75;100340.44;5036294;27;97012;-73
2021/04/03 08:48:12;;;;;;;11.25;4.75;;;;;;;24.35;26.50;100346.31;5034103;27;97213;-73
2021/04/03 08:50:42;;;;;;;9.40;4.85;;;;;;;23.36;27.31;100334.56;5030963;27;101860;-73
2021/04/03 08:53:08;;;;;;;11.25;3.95;;;;;;;24.69;26.24;100341.38;5035491;27;98701;-72
2021/04/03 08:55:34;;;;;;;13.45;4.43;;;;;;;24.93;25.47;100343.63;5018808;27;97045;-72
2021/04/03 08:58:01;;;;;;;13.20;3.95;;;;;;;25.39;24.95;100336.56;5035509;27;96940;-72
2021/04/03 09:00:28;;;;;;;8.00;3.80;;;;;;;25.47;25.39;100344.72;5035857;27;101458;-73
2021/04/03 09:02:55;;;;;;;10.23;5.63;;;;;;;25.56;24.89;100339.47;5034890;27;100767;-73
2021/04/03 09:05:20;;;;;;;8.25;3.85;;;;;;;24.87;25.03;100352.25;5035906;27;97158;-72
2021/04/03 09:07:46;;;;;;;10.55;3.80;;;;;;;24.99;25.51;100342.19;5035295;27;97140;-72
2021/04/03 09:10:14;;;;;;;10.07;4.03;;;;;;;24.82;25.76;100352.66;5035432;27;100849;-72
2021/04/03 09:12:40;;;;;;;8.50;4.20;;;;;;;22.36;28.03;100356.41;5019022;27;101758;-72
2021/04/03 09:15:07;;;;;;;9.68;4.65;;;;;;;20.91;29.96;100350.97;5034861;27;96675;-72
2021/04/03 09:17:33;;;;;;;9.68;3.95;;;;;;;19.65;31.64;100365.56;5036213;27;96862;-72
2021/04/03 09:20:08;;;;;;;7.03;3.60;;;;;;;18.65;32.34;100368.03;5034329;27;101329;-72
2021/04/03 09:22:38;;;;;;;9.93;3.85;;;;;;;17.27;34.39;100374.16;5035358;27;101357;-72
2021/04/03 09:25:15;;;;;;;16.52;4.88;;;;;;;16.49;35.57;100379.59;5034804;27;97461;-72
2021/04/03 09:27:41;;;;;;;9.85;3.97;;;;;;;16.51;35.15;100375.94;5030825;27;96963;-72
2021/04/03 09:30:13;;;;;;;9.05;4.60;;;;;;;17.06;34.87;100377.16;5034279;27;102162;-72
2021/04/03 09:32:46;;;;;;;7.80;4.35;;;;;;;17.16;35.18;100370.38;5052161;27;97990;-72
2021/04/03 09:35:20;;;;;;;8.38;4.35;;;;;;;16.80;35.99;100376.06;5035003;27;96688;-72
2021/04/03 09:37:55;;;;;;;8.30;4.05;;;;;;;15.62;37.08;100377.38;5035155;27;97437;-73
2021/04/03 09:40:35;;;;;;;9.38;4.22;;;;;;;15.44;37.69;100387.13;5017712;27;100990;-72
2021/04/03 09:43:01;;;;;;;22.13;5.32;;;;;;;15.53;37.75;100383.16;5017501;27;101497;-72
2021/04/03 09:45:27;;;;;;;10.13;4.13;;;;;;;15.32;37.88;100385.16;5034570;27;96600;-71
2021/04/03 09:47:53;;;;;;;8.77;4.22;;;;;;;15.37;38.27;100391.06;5017654;27;97011;-72
2021/04/03 09:50:19;;;;;;;12.15;4.60;;;;;;;15.23;38.27;100394.41;5035287;27;98187;-71
2021/04/03 09:52:44;;;;;;;12.98;5.25;;;;;;;15.08;38.58;100390.78;5018319;27;100551;-73
2021/04/03 09:55:10;;;;;;;11.77;4.15;;;;;;;15.01;38.24;100392.03;5034592;27;96686;-73
2021/04/03 09:57:36;;;;;;;12.73;4.35;;;;;;;14.92;38.18;100392.50;5034956;27;97089;-73
2021/04/03 10:00:02;;;;;;;9.70;4.30;;;;;;;14.82;38.11;100389.47;5016781;27;101311;-73
2021/04/03 10:02:30;;;;;;;9.57;4.40;;;;;;;15.14;38.56;100389.63;5052271;27;97743;-73
2021/04/03 10:04:56;;;;;;;6.93;3.70;;;;;;;14.81;39.79;100379.84;5034854;27;96576;-73
2021/04/03 10:07:21;;;;;;;14.15;4.40;;;;;;;15.22;39.31;100390.06;5052247;27;96858;-73
2021/04/03 10:09:47;;;;;;;11.25;4.43;;;;;;;15.12;38.51;100388.81;5034112;27;100492;-73
2021/04/03 10:12:12;;;;;;;9.50;4.30;;;;;;;15.27;38.33;100387.16;5033805;27;101508;-73
2021/04/03 10:14:38;;;;;;;8.30;3.45;;;;;;;15.06;36.79;100389.16;5035196;27;97013;-73
2021/04/03 10:17:03;;;;;;;8.95;3.55;;;;;;;15.08;37.93;100393.44;5034270;27;97384;-74
2021/04/03 10:19:29;;;;;;;8.13;3.20;;;;;;;14.81;37.43;100389.56;5034917;27;98655;-73
2021/04/03 10:21:54;;;;;;;8.23;3.33;;;;;;;14.73;37.83;100381.16;5034041;27;97296;-74
2021/04/03 10:24:20;;;;;;;14.48;3.60;;;;;;;14.56;37.29;100382.84;5034638;27;96898;-73
2021/04/03 10:26:46;;;;;;;8.45;3.72;;;;;;;14.44;37.46;100378.13;5035403;27;96875;-73
2021/04/03 10:29:11;;;;;;;9.90;3.00;;;;;;;14.21;38.36;100380.09;5033223;27;101464;-73
2021/04/03 10:31:37;;;;;;;6.50;3.33;;;;;;;14.16;38.25;100381.25;5017515;27;100318;-73
2021/04/03 10:34:02;;;;;;;6.07;2.95;;;;;;;13.90;38.79;100374.56;5033574;27;97090;-73
2021/04/03 10:36:28;;;;;;;6.35;3.00;;;;;;;14.13;39.25;100379.59;5034524;27;96914;-73
2021/04/03 10:38:54;;;;;;;7.28;3.17;;;;;;;13.74;38.04;100372.66;5033662;27;99337;-76
2021/04/03 10:41:19;;;;;;;9.63;3.05;;;;;;;13.68;38.52;100372.94;5017076;27;101270;-73
2021/04/03 10:43:45;;;;;;;6.68;3.25;;;;;;;13.34;38.65;100371.81;5034490;27;96762;-73
2021/04/03 10:46:10;;;;;;;6.85;2.95;;;;;;;12.92;38.36;100366.63;5034147;27;97557;-73
2021/04/03 10:48:36;;;;;;;8.60;3.45;;;;;;;13.24;39.10;100365.22;5034557;27;97970;-73
2021/04/03 10:51:04;;;;;;;10.10;3.45;;;;;;;13.20;39.55;100366.25;5033655;27;101105;-73
2021/04/03 10:53:29;;;;;;;9.73;3.00;;;;;;;13.32;39.48;100364.91;5017706;27;97216;-73
2021/04/03 10:55:55;;;;;;;9.65;2.70;;;;;;;13.29;39.28;100360.66;5033790;27;97205;-76
2021/04/03 10:58:20;;;;;;;5.72;2.88;;;;;;;13.03;38.45;100360.88;5016545;27;101535;-73
2021/04/03 11:00:46;;;;;;;7.38;3.15;;;;;;;13.26;39.06;100362.53;5034136;27;99471;-73
2021/04/03 11:03:11;;;;;;;8.50;3.38;;;;;;;13.26;39.22;100366.03;5033923;27;96726;-73
2021/04/03 11:05:37;;;;;;;7.15;2.92;;;;;;;13.18;39.01;100368.13;5051771;27;96680;-73
2021/04/03 11:08:06;;;;;;;4.53;2.80;;;;;;;13.41;39.07;100359.25;5033523;27;98278;-73
2021/04/03 11:10:32;;;;;;;4.82;2.85;;;;;;;13.45;38.71;100358.16;5017899;27;101078;-73
2021/04/03 11:12:58;;;;;;;7.22;3.05;;;;;;;13.55;38.67;100354.16;5036816;27;96570;-75
2021/04/03 11:15:24;;;;;;;11.57;2.92;;;;;;;13.17;38.93;100361.13;5038258;27;97158;-74
2021/04/03 11:17:52;;;;;;;9.70;3.33;;;;;;;13.40;39.12;100364.56;5036673;27;100969;-73
2021/04/03 11:20:19;;;;;;;7.10;2.90;;;;;;;13.25;39.62;100366.06;5036987;27;98132;-73
2021/04/03 11:22:44;;;;;;;6.70;3.03;;;;;;;13.32;39.74;100356.97;5036987;27;97207;-73
2021/04/03 11:25:10;;;;;;;8.43;3.03;;;;;;;13.24;40.82;100359.09;5036586;27;97175;-73